Time;durP1;ratioP1;P1;durP2;ratioP2;P2;SDS_P1;SDS_P2;PMS_P1;PMS_P2;Temp;Humidity;BMP_temperature;BMP_pressure;BME280_temperature;BME280_humidity;BME280_pressure;Samples;Min_cycle;Max_cycle;Signal;HPM_P1;HPM_P2
2022/05/15 00:02:25;;;;;;;1.33;0.95;;;;;;;;;;5090989;28;20089;-54
2022/05/15 00:04:52;;;;;;;1.40;0.95;;;;;;;;;;5090874;28;20395;-53
2022/05/15 00:07:19;;;;;;;1.67;0.80;;;;;;;;;;5090986;28;20080;-60
2022/05/15 00:09:47;;;;;;;1.65;1.00;;;;;;;;;;5091087;28;20069;-52
2022/05/15 00:12:16;;;;;;;1.10;1.00;;;;;;;;;;5090942;28;20040;-52
2022/05/15 00:14:43;;;;;;;2.67;0.90;;;;;;;;;;5090748;28;20117;-53
2022/05/15 00:17:10;;;;;;;1.17;0.80;;;;;;;;;;5090972;28;20032;-53
2022/05/15 00:19:38;;;;;;;1.42;0.93;;;;;;;;;;5090585;28;20472;-48
2022/05/15 00:22:08;;;;;;;1.25;0.90;;;;;;;;;;5091098;28;20106;-50
2022/05/15 00:24:36;;;;;;;1.55;1.15;;;;;;;;;;5090908;28;20044;-54
2022/05/15 00:27:04;;;;;;;2.70;0.95;;;;;;;;;;5091014;28;20051;-52
2022/05/15 00:29:34;;;;;;;1.52;0.98;;;;;;;;;;5072581;28;20048;-55
2022/05/15 00:32:01;;;;;;;1.92;1.02;;;;;;;;;;5070174;28;20043;-53
2022/05/15 00:34:28;;;;;;;4.20;1.20;;;;;;;;;;5071055;28;20045;-53
2022/05/15 00:36:55;;;;;;;4.82;1.10;;;;;;;;;;5074227;28;20052;-54
2022/05/15 00:39:22;;;;;;;2.13;0.90;;;;;;;;;;5074137;28;20083;-53
2022/05/15 00:41:52;;;;;;;1.88;1.30;;;;;;;;;;5055791;28;20470;-50
2022/05/15 00:44:19;;;;;;;1.52;1.00;;;;;;;;;;5074125;28;20040;-52
2022/05/15 00:46:47;;;;;;;2.17;1.10;;;;;;;;;;5073787;28;20049;-57
2022/05/15 00:49:16;;;;;;;1.95;1.10;;;;;;;;;;5074052;28;20446;-58
2022/05/15 00:51:50;;;;;;;1.67;1.02;;;;;;;;;;5073832;28;20108;-59
2022/05/15 00:54:57;;;;;;;1.60;1.00;;;;;;;;;;5073826;28;20041;-57
2022/05/15 00:57:37;;;;;;;2.33;1.23;;;;;;;;;;5015056;28;20516;-51
2022/05/15 01:00:04;;;;;;;1.17;1.00;;;;;;;;;;5054410;28;20048;-52
2022/05/15 01:02:37;;;;;;;2.38;1.27;;;;;;;;;;5073616;28;20529;-55
2022/05/15 01:05:06;;;;;;;1.40;0.90;;;;;;;;;;5073907;28;20071;-57
2022/05/15 01:07:34;;;;;;;2.70;1.17;;;;;;;;;;5073644;28;20048;-54
2022/05/15 01:10:01;;;;;;;6.03;1.50;;;;;;;;;;5073448;28;20040;-52
2022/05/15 01:12:31;;;;;;;1.63;1.10;;;;;;;;;;5073511;28;20079;-58
2022/05/15 01:14:59;;;;;;;1.48;1.20;;;;;;;;;;5055348;28;20466;-56
2022/05/15 01:17:28;;;;;;;1.85;1.05;;;;;;;;;;5055510;28;20899;-59
2022/05/15 01:20:13;;;;;;;1.95;1.10;;;;;;;;;;5073197;28;20071;-57
2022/05/15 01:22:41;;;;;;;2.67;1.70;;;;;;;;;;5055221;28;20507;-55
2022/05/15 01:25:18;;;;;;;2.08;1.23;;;;;;;;;;5073029;28;20052;-52
2022/05/15 01:27:57;;;;;;;1.40;0.90;;;;;;;;;;5058263;28;20090;-52
2022/05/15 01:30:25;;;;;;;1.45;1.08;;;;;;;;;;5075228;28;20044;-49
2022/05/15 01:32:52;;;;;;;3.80;1.13;;;;;;;;;;5075052;28;20040;-51
2022/05/15 01:35:22;;;;;;;1.85;1.20;;;;;;;;;;5091953;28;20043;-51
2022/05/15 01:37:52;;;;;;;1.60;1.10;;;;;;;;;;5093168;28;20119;-52
2022/05/15 01:40:20;;;;;;;3.40;1.35;;;;;;;;;;5075153;28;20051;-58
2022/05/15 01:42:49;;;;;;;2.15;1.17;;;;;;;;;;5075062;28;20048;-56
2022/05/15 01:45:17;;;;;;;1.80;1.10;;;;;;;;;;5074539;28;20046;-51
2022/05/15 01:47:45;;;;;;;2.17;1.33;;;;;;;;;;5074773;28;20044;-51
2022/05/15 01:50:14;;;;;;;3.33;1.10;;;;;;;;;;5074777;28;20127;-56
2022/05/15 01:52:43;;;;;;;3.20;1.23;;;;;;;;;;5074832;28;20150;-50
2022/05/15 01:55:11;;;;;;;2.67;1.20;;;;;;;;;;5074480;28;20040;-54
2022/05/15 01:57:41;;;;;;;2.72;0.88;;;;;;;;;;5074311;28;20055;-53
2022/05/15 02:00:16;;;;;;;1.92;0.90;;;;;;;;;;5091950;28;20097;-52
2022/05/15 02:02:48;;;;;;;3.53;1.00;;;;;;;;;;5074564;28;20438;-52
2022/05/15 02:05:17;;;;;;;3.10;1.20;;;;;;;;;;5087010;28;20041;-50
2022/05/15 02:07:44;;;;;;;1.88;1.10;;;;;;;;;;5072322;28;20111;-51
2022/05/15 02:10:12;;;;;;;2.70;1.20;;;;;;;;;;5072073;28;20044;-51
2022/05/15 02:12:40;;;;;;;2.10;1.30;;;;;;;;;;5054567;28;20050;-49
2022/05/15 02:15:10;;;;;;;3.38;1.48;;;;;;;;;;5072125;28;20055;-53
2022/05/15 02:17:39;;;;;;;1.95;1.33;;;;;;;;;;5065745;28;20448;-53
2022/05/15 02:20:10;;;;;;;1.35;1.02;;;;;;;;;;5092479;28;20047;-50
2022/05/15 02:22:39;;;;;;;2.20;1.33;;;;;;;;;;5074364;28;20039;-52
2022/05/15 02:25:09;;;;;;;4.07;1.20;;;;;;;;;;5092442;28;20102;-50
2022/05/15 02:27:41;;;;;;;;;;;;;;;;;;5074571;28;20518;-49
2022/05/15 02:30:09;;;;;;;1.52;1.00;;;;;;;;;;5091128;28;19924;-52
2022/05/15 02:32:37;;;;;;;2.83;1.30;;;;;;;;;;5092646;28;20040;-50
2022/05/15 02:35:06;;;;;;;1.58;1.10;;;;;;;;;;5074022;28;20044;-49
2022/05/15 02:37:34;;;;;;;1.80;1.30;;;;;;;;;;5091986;28;20039;-51
2022/05/15 02:40:04;;;;;;;1.95;1.30;;;;;;;;;;5073695;28;20070;-47
2022/05/15 02:42:31;;;;;;;3.47;1.45;;;;;;;;;;5091947;28;20073;-48
2022/05/15 02:44:59;;;;;;;3.15;1.40;;;;;;;;;;5090602;28;20127;-52
2022/05/15 02:47:27;;;;;;;1.67;1.10;;;;;;;;;;5073342;28;20079;-52
2022/05/15 02:52:42;;;;;;;6.00;2.55;;;;;;;;;;5073712;28;20056;-53
2022/05/15 02:55:10;;;;;;;13.10;5.90;;;;;;;;;;5073909;28;20130;-48
2022/05/15 02:57:40;;;;;;;6.15;3.53;;;;;;;;;;5089626;28;20048;-51
2022/05/15 03:00:12;;;;;;;2.80;1.60;;;;;;;;;;5090636;28;20048;-59
2022/05/15 03:02:41;;;;;;;1.15;0.88;;;;;;;;;;5073456;28;20048;-59
2022/05/15 03:05:11;;;;;;;2.88;1.27;;;;;;;;;;5091609;28;20044;-53
2022/05/15 03:07:40;;;;;;;1.60;1.23;;;;;;;;;;5072973;28;20407;-49
2022/05/15 03:10:07;;;;;;;1.95;1.23;;;;;;;;;;5073318;28;20055;-54
2022/05/15 03:12:35;;;;;;;2.03;1.23;;;;;;;;;;5091376;28;20036;-59
2022/05/15 03:15:05;;;;;;;16.65;8.23;;;;;;;;;;5091491;28;20105;-59
2022/05/15 03:17:34;;;;;;;11.20;2.55;;;;;;;;;;5073673;28;20117;-59
2022/05/15 03:20:04;;;;;;;5.95;2.67;;;;;;;;;;5091473;28;20093;-58
2022/05/15 03:22:32;;;;;;;2.75;1.40;;;;;;;;;;5090153;28;20072;-52
2022/05/15 03:24:59;;;;;;;2.45;1.45;;;;;;;;;;5073161;28;20032;-58
2022/05/15 03:27:27;;;;;;;2.30;1.27;;;;;;;;;;5070950;28;20044;-50
2022/05/15 03:29:56;;;;;;;1.42;1.05;;;;;;;;;;5052909;28;20048;-45
2022/05/15 03:32:24;;;;;;;1.95;0.95;;;;;;;;;;5070736;28;20123;-58
2022/05/15 03:34:51;;;;;;;2.60;1.10;;;;;;;;;;5053077;28;20036;-59
2022/05/15 03:37:18;;;;;;;1.15;0.93;;;;;;;;;;5070934;28;20045;-47
2022/05/15 03:39:46;;;;;;;3.03;1.27;;;;;;;;;;5070881;28;20037;-47
2022/05/15 03:42:14;;;;;;;35.50;21.67;;;;;;;;;;5053362;28;20571;-58
2022/05/15 03:44:41;;;;;;;44.60;22.67;;;;;;;;;;5071148;28;20502;-59
2022/05/15 03:47:09;;;;;;;20.70;10.25;;;;;;;;;;5053096;28;20406;-53
2022/05/15 03:49:37;;;;;;;8.65;3.70;;;;;;;;;;5052931;28;20635;-57
2022/05/15 03:52:06;;;;;;;4.10;2.30;;;;;;;;;;5053022;28;20074;-59
2022/05/15 03:54:33;;;;;;;4.30;1.90;;;;;;;;;;5070728;28;20472;-59
2022/05/15 03:57:01;;;;;;;2.10;1.00;;;;;;;;;;5053025;28;20048;-55
2022/05/15 03:59:31;;;;;;;2.33;0.90;;;;;;;;;;5070983;28;20063;-57
2022/05/15 04:02:00;;;;;;;3.30;1.10;;;;;;;;;;5052617;28;20052;-58
2022/05/15 04:04:30;;;;;;;1.25;0.90;;;;;;;;;;5070725;28;21136;-54
2022/05/15 04:06:59;;;;;;;2.40;0.90;;;;;;;;;;5052373;28;20118;-58
2022/05/15 04:09:28;;;;;;;1.50;0.90;;;;;;;;;;5053560;28;20476;-59
2022/05/15 04:11:56;;;;;;;27.15;16.63;;;;;;;;;;5074304;28;20040;-58
2022/05/15 04:14:24;;;;;;;27.77;14.30;;;;;;;;;;5074405;28;20082;-60
2022/05/15 04:16:51;;;;;;;8.45;3.83;;;;;;;;;;5056428;28;20044;-56
2022/05/15 04:19:19;;;;;;;2.83;1.40;;;;;;;;;;5074114;28;20446;-58
2022/05/15 04:21:46;;;;;;;1.88;1.00;;;;;;;;;;5056866;28;20049;-47
2022/05/15 04:24:16;;;;;;;1.85;0.98;;;;;;;;;;5076422;28;20039;-55
2022/05/15 04:26:46;;;;;;;1.27;0.90;;;;;;;;;;5078555;28;20391;-56
2022/05/15 04:29:14;;;;;;;1.02;0.80;;;;;;;;;;5078958;28;20463;-56
2022/05/15 04:31:42;;;;;;;6.57;0.98;;;;;;;;;;5073777;28;20040;-58
2022/05/15 04:34:09;;;;;;;3.90;0.90;;;;;;;;;;5056105;28;20453;-58
2022/05/15 04:36:37;;;;;;;0.93;0.70;;;;;;;;;;5072881;28;20051;-56
2022/05/15 04:39:06;;;;;;;1.95;0.98;;;;;;;;;;5081806;28;20071;-59
2022/05/15 04:41:36;;;;;;;1.23;0.90;;;;;;;;;;5094315;28;20051;-59
2022/05/15 04:44:03;;;;;;;0.90;0.70;;;;;;;;;;5094006;28;20036;-59
2022/05/15 04:46:30;;;;;;;1.90;1.08;;;;;;;;;;5093923;28;20040;-59
2022/05/15 04:48:58;;;;;;;1.30;0.80;;;;;;;;;;5094422;28;20627;-58
2022/05/15 04:51:26;;;;;;;1.13;0.80;;;;;;;;;;5094124;28;20036;-61
2022/05/15 04:53:54;;;;;;;3.20;0.90;;;;;;;;;;5094104;28;20039;-57
2022/05/15 04:56:22;;;;;;;22.35;14.40;;;;;;;;;;5093971;28;20483;-54
2022/05/15 04:58:49;;;;;;;79.45;41.88;;;;;;;;;;5094106;28;20048;-51
2022/05/15 05:01:18;;;;;;;10.25;5.80;;;;;;;;;;5094238;28;20055;-59
2022/05/15 05:03:45;;;;;;;3.00;1.13;;;;;;;;;;5094184;28;20138;-59
2022/05/15 05:06:12;;;;;;;1.77;0.95;;;;;;;;;;5093758;28;20040;-59
2022/05/15 05:08:40;;;;;;;1.50;0.85;;;;;;;;;;5081518;28;20215;-58
2022/05/15 05:11:07;;;;;;;1.23;0.73;;;;;;;;;;5093741;28;20051;-53
2022/05/15 05:13:34;;;;;;;1.17;0.70;;;;;;;;;;5089904;28;20770;-57
2022/05/15 05:16:02;;;;;;;1.38;0.80;;;;;;;;;;5073206;28;20040;-58
2022/05/15 05:18:30;;;;;;;7.07;1.13;;;;;;;;;;5064432;28;20052;-59
2022/05/15 05:20:57;;;;;;;3.13;0.98;;;;;;;;;;5052611;28;20048;-53
2022/05/15 05:23:24;;;;;;;2.45;0.98;;;;;;;;;;5053077;28;20536;-59
2022/05/15 05:25:51;;;;;;;1.45;0.70;;;;;;;;;;5053108;28;20041;-52
2022/05/15 05:28:19;;;;;;;3.33;1.15;;;;;;;;;;5061089;28;20407;-59
2022/05/15 05:30:47;;;;;;;2.10;0.95;;;;;;;;;;5073253;28;20055;-53
2022/05/15 05:33:14;;;;;;;1.80;0.80;;;;;;;;;;5073011;28;20076;-54
2022/05/15 05:35:42;;;;;;;1.00;0.70;;;;;;;;;;5073027;28;20195;-60
2022/05/15 05:38:10;;;;;;;2.50;0.93;;;;;;;;;;5073004;28;20088;-52
2022/05/15 05:40:37;;;;;;;3.45;1.00;;;;;;;;;;5072557;28;20118;-54
2022/05/15 05:43:05;;;;;;;0.93;0.68;;;;;;;;;;5073191;28;20380;-57
2022/05/15 05:45:32;;;;;;;1.95;0.70;;;;;;;;;;5076917;28;20127;-51
2022/05/15 05:48:00;;;;;;;1.45;0.82;;;;;;;;;;5072693;28;20102;-54
2022/05/15 05:50:28;;;;;;;2.05;0.70;;;;;;;;;;5072511;28;20032;-56
2022/05/15 05:52:57;;;;;;;1.70;0.82;;;;;;;;;;5072712;28;20094;-58
2022/05/15 05:55:26;;;;;;;2.40;0.90;;;;;;;;;;5074350;28;20052;-54
2022/05/15 05:57:53;;;;;;;1.95;0.70;;;;;;;;;;5072396;28;20060;-54
2022/05/15 06:00:27;;;;;;;20.13;11.57;;;;;;;;;;5072775;28;20044;-57
2022/05/15 06:04:39;;;;;;;9.50;4.60;;;;;;;;;;5072798;28;20043;-58
2022/05/15 06:05:46;;;;;;;3.85;1.42;;;;;;;;;;5072252;28;20044;-52
2022/05/15 06:08:15;;;;;;;1.20;0.80;;;;;;;;;;5072375;28;20040;-53
2022/05/15 06:10:42;;;;;;;3.70;0.88;;;;;;;;;;5072549;28;20037;-57
2022/05/15 06:13:10;;;;;;;2.08;0.80;;;;;;;;;;5087708;28;20083;-50
2022/05/15 06:15:38;;;;;;;2.55;0.70;;;;;;;;;;5072286;28;20028;-58
2022/05/15 06:18:06;;;;;;;2.92;0.77;;;;;;;;;;5072201;28;20487;-56
2022/05/15 06:20:34;;;;;;;2.25;0.65;;;;;;;;;;5072272;28;20097;-58
2022/05/15 06:23:01;;;;;;;1.25;0.73;;;;;;;;;;5072134;28;20123;-59
2022/05/15 06:25:29;;;;;;;1.45;0.80;;;;;;;;;;5072452;28;20040;-57
2022/05/15 06:27:58;;;;;;;1.10;0.60;;;;;;;;;;5067505;28;20059;-54
2022/05/15 06:30:25;;;;;;;1.70;0.80;;;;;;;;;;5051858;28;20037;-56
2022/05/15 06:32:53;;;;;;;1.23;0.80;;;;;;;;;;5049837;28;20521;-59
2022/05/15 06:35:22;;;;;;;1.55;0.90;;;;;;;;;;5052057;28;20457;-54
2022/05/15 06:37:49;;;;;;;1.52;0.88;;;;;;;;;;5051869;28;20075;-54
2022/05/15 06:40:17;;;;;;;1.70;0.93;;;;;;;;;;5052073;28;20377;-52
2022/05/15 06:42:46;;;;;;;2.00;0.75;;;;;;;;;;5051700;28;20417;-54
2022/05/15 06:45:15;;;;;;;0.95;0.77;;;;;;;;;;5051607;28;20053;-58
2022/05/15 06:47:42;;;;;;;1.42;0.95;;;;;;;;;;5051301;28;20041;-56
2022/05/15 06:50:10;;;;;;;2.42;0.70;;;;;;;;;;5051435;28;20041;-57
2022/05/15 06:52:38;;;;;;;1.33;0.90;;;;;;;;;;5051600;28;20041;-53
2022/05/15 06:55:09;;;;;;;37.22;25.25;;;;;;;;;;5051396;28;20037;-53
2022/05/15 06:57:36;;;;;;;27.77;16.95;;;;;;;;;;5051268;28;20484;-57
2022/05/15 07:00:12;;;;;;;2.38;1.30;;;;;;;;;;5051349;28;20041;-53
2022/05/15 07:02:41;;;;;;;1.60;0.80;;;;;;;;;;5051631;28;20060;-57
2022/05/15 07:05:15;;;;;;;0.93;0.60;;;;;;;;;;5051440;28;20048;-54
2022/05/15 07:07:43;;;;;;;1.08;0.75;;;;;;;;;;5051220;28;20049;-54
2022/05/15 07:10:10;;;;;;;1.25;0.80;;;;;;;;;;5063616;28;20045;-53
2022/05/15 07:12:39;;;;;;;1.77;0.98;;;;;;;;;;5070690;28;20566;-58
2022/05/15 07:15:07;;;;;;;2.75;0.98;;;;;;;;;;5086873;28;20040;-52
2022/05/15 07:17:35;;;;;;;1.90;0.75;;;;;;;;;;5091385;28;20097;-55
2022/05/15 07:20:05;;;;;;;1.77;1.05;;;;;;;;;;5091325;28;20036;-52
2022/05/15 07:22:33;;;;;;;1.98;0.98;;;;;;;;;;5091318;28;20071;-52
2022/05/15 07:25:00;;;;;;;1.90;1.02;;;;;;;;;;5091462;28;20088;-55
2022/05/15 07:27:28;;;;;;;1.38;0.98;;;;;;;;;;5090373;28;20169;-55
2022/05/15 07:29:55;;;;;;;1.95;0.93;;;;;;;;;;5071290;28;20041;-52
2022/05/15 07:32:23;;;;;;;3.65;1.10;;;;;;;;;;5071291;28;20044;-58
2022/05/15 07:34:50;;;;;;;6.63;2.97;;;;;;;;;;5071362;28;20146;-57
2022/05/15 07:37:17;;;;;;;3.38;1.80;;;;;;;;;;5070911;28;20094;-49
2022/05/15 07:39:44;;;;;;;4.50;0.98;;;;;;;;;;5069505;28;20045;-51
2022/05/15 07:42:12;;;;;;;2.92;1.05;;;;;;;;;;5070940;28;20093;-52
2022/05/15 07:44:39;;;;;;;2.65;0.90;;;;;;;;;;5073895;28;20040;-52
2022/05/15 07:47:08;;;;;;;1.27;0.80;;;;;;;;;;5074966;28;20116;-53
2022/05/15 07:49:42;;;;;;;1.85;0.93;;;;;;;;;;5074882;28;20037;-51
2022/05/15 07:52:09;;;;;;;1.52;0.85;;;;;;;;;;5074811;28;20044;-50
2022/05/15 07:54:37;;;;;;;1.65;0.98;;;;;;;;;;5075257;28;20040;-53
2022/05/15 07:57:05;;;;;;;1.15;0.82;;;;;;;;;;5075013;28;20137;-51
2022/05/15 07:59:32;;;;;;;1.33;0.80;;;;;;;;;;5082789;28;20032;-50
2022/05/15 08:02:02;;;;;;;1.80;0.85;;;;;;;;;;5073766;28;20055;-53
2022/05/15 08:08:00;;;;;;;2.10;0.93;;;;;;;;;;5074680;28;20044;-52
2022/05/15 08:10:07;;;;;;;1.60;0.90;;;;;;;;;;5093031;28;20048;-54
2022/05/15 08:12:34;;;;;;;1.38;0.95;;;;;;;;;;5094440;28;20032;-54
2022/05/15 08:15:04;;;;;;;7.63;0.82;;;;;;;;;;5079522;28;20458;-50
2022/05/15 08:17:31;;;;;;;2.28;0.80;;;;;;;;;;5074506;28;20261;-54
2022/05/15 08:25:32;;;;;;;1.73;0.80;;;;;;;;;;5074302;28;20052;-51
2022/05/15 08:27:59;;;;;;;81.93;55.22;;;;;;;;;;5069477;28;20053;-58
2022/05/15 08:30:27;;;;;;;15.55;11.40;;;;;;;;;;5055811;28;20045;-53
2022/05/15 08:32:54;;;;;;;2.08;1.10;;;;;;;;;;5061802;28;58808;-53
2022/05/15 08:35:23;;;;;;;3.47;0.80;;;;;;;;;;5073026;28;20051;-52
2022/05/15 08:37:51;;;;;;;1.35;0.77;;;;;;;;;;5072811;28;20781;-53
2022/05/15 08:40:24;;;;;;;2.60;0.80;;;;;;;;;;5092511;28;20040;-54
2022/05/15 08:42:56;;;;;;;1.60;0.80;;;;;;;;;;5093117;28;20101;-47
2022/05/15 08:45:27;;;;;;;0.98;0.73;;;;;;;;;;5092940;28;20437;-52
2022/05/15 08:48:12;;;;;;;0.98;0.75;;;;;;;;;;5092419;28;20051;-50
2022/05/15 08:50:46;;;;;;;0.90;0.70;;;;;;;;;;5093836;28;20107;-52
2022/05/15 08:53:28;;;;;;;2.28;0.80;;;;;;;;;;5093906;28;20068;-53
2022/05/15 08:55:59;;;;;;;1.13;0.50;;;;;;;;;;5092648;28;20479;-50
2022/05/15 08:58:48;;;;;;;2.90;0.80;;;;;;;;;;5093739;28;20085;-53
2022/05/15 09:01:27;;;;;;;1.30;0.60;;;;;;;;;;5093839;28;20094;-54
2022/05/15 09:03:55;;;;;;;1.27;0.68;;;;;;;;;;5093677;28;20043;-51
2022/05/15 09:06:31;;;;;;;0.93;0.70;;;;;;;;;;5093552;28;20441;-54
2022/05/15 09:09:16;;;;;;;1.13;0.80;;;;;;;;;;5093819;28;20080;-53
2022/05/15 09:11:51;;;;;;;1.38;0.68;;;;;;;;;;5093543;28;20074;-51
2022/05/15 09:14:38;;;;;;;2.38;1.00;;;;;;;;;;5112069;27;20040;-55
2022/05/15 09:17:31;;;;;;;1.33;0.70;;;;;;;;;;5134298;27;20039;-55
2022/05/15 09:20:22;;;;;;;1.30;0.70;;;;;;;;;;5134808;27;20070;-54
2022/05/15 09:23:01;;;;;;;0.73;0.60;;;;;;;;;;5121183;27;20134;-53
2022/05/15 09:25:34;;;;;;;36.47;21.48;;;;;;;;;;5134562;27;20039;-54
2022/05/15 09:28:03;;;;;;;107.93;75.10;;;;;;;;;;5134246;27;20451;-54
2022/05/15 09:30:46;;;;;;;2.55;1.50;;;;;;;;;;5134351;27;20039;-52
2022/05/15 09:33:47;;;;;;;1.80;0.65;;;;;;;;;;5133620;27;20043;-50
2022/05/15 09:36:17;;;;;;;1.30;0.52;;;;;;;;;;5110106;28;20031;-53
2022/05/15 09:38:46;;;;;;;3.08;0.70;;;;;;;;;;5125742;27;20035;-51
2022/05/15 09:44:33;;;;;;;1.75;0.82;;;;;;;;;;5113203;28;20553;-55
2022/05/15 09:47:21;;;;;;;1.27;0.70;;;;;;;;;;5113484;28;20040;-52
2022/05/15 09:49:48;;;;;;;1.08;0.60;;;;;;;;;;5113372;28;20505;-52
2022/05/15 09:52:29;;;;;;;1.50;0.73;;;;;;;;;;5095185;28;20502;-52
2022/05/15 09:55:10;;;;;;;1.45;0.70;;;;;;;;;;5125529;27;20043;-49
2022/05/15 09:57:38;;;;;;;2.60;0.60;;;;;;;;;;5133708;27;20043;-49
2022/05/15 10:00:12;;;;;;;2.78;0.80;;;;;;;;;;5133639;27;20459;-52
2022/05/15 10:02:42;;;;;;;2.40;1.00;;;;;;;;;;5115432;27;20432;-49
2022/05/15 10:05:37;;;;;;;1.30;0.77;;;;;;;;;;5132748;27;20043;-48
2022/05/15 10:08:27;;;;;;;2.78;0.70;;;;;;;;;;5133293;27;20513;-48
2022/05/15 10:11:23;;;;;;;1.55;0.80;;;;;;;;;;5133604;27;20092;-47
2022/05/15 10:13:58;;;;;;;2.22;0.68;;;;;;;;;;5132998;27;20047;-50
2022/05/15 10:16:38;;;;;;;2.58;0.70;;;;;;;;;;5133323;27;20031;-53
2022/05/15 10:19:15;;;;;;;2.33;0.80;;;;;;;;;;5133441;27;20039;-51
2022/05/15 10:21:48;;;;;;;1.10;0.70;;;;;;;;;;5133125;27;20391;-52
2022/05/15 10:24:21;;;;;;;1.63;0.63;;;;;;;;;;5133058;27;20038;-54
2022/05/15 10:27:13;;;;;;;2.53;0.60;;;;;;;;;;5133184;27;20039;-51
2022/05/15 10:30:02;;;;;;;2.50;0.60;;;;;;;;;;5132854;27;20130;-48
2022/05/15 10:32:56;;;;;;;2.80;0.93;;;;;;;;;;5133137;27;20112;-54
2022/05/15 10:35:52;;;;;;;1.27;0.95;;;;;;;;;;5121156;27;20035;-53
2022/05/15 10:38:38;;;;;;;1.75;0.75;;;;;;;;;;5090450;27;20059;-53
2022/05/15 10:41:20;;;;;;;1.08;0.70;;;;;;;;;;5112356;28;20089;-53
2022/05/15 10:44:05;;;;;;;2.15;0.70;;;;;;;;;;5112240;28;20445;-50
2022/05/15 10:46:56;;;;;;;1.10;0.60;;;;;;;;;;5112087;28;20056;-48
2022/05/15 10:49:59;;;;;;;2.20;0.65;;;;;;;;;;5112305;28;20043;-48
2022/05/15 10:52:32;;;;;;;0.73;0.63;;;;;;;;;;5112162;28;20054;-52
2022/05/15 10:58:40;;;;;;;2.50;0.50;;;;;;;;;;5112169;28;20706;-51
2022/05/15 11:01:30;;;;;;;1.95;0.80;;;;;;;;;;5112224;28;20612;-50
2022/05/15 11:04:00;;;;;;;0.65;0.60;;;;;;;;;;5111876;28;20065;-51
2022/05/15 11:06:49;;;;;;;4.53;1.00;;;;;;;;;;5111825;28;20051;-55
2022/05/15 11:09:19;;;;;;;5.97;1.38;;;;;;;;;;5112070;28;20053;-50
2022/05/15 11:12:03;;;;;;;2.50;1.10;;;;;;;;;;5111722;28;20393;-52
2022/05/15 11:14:51;;;;;;;0.68;0.50;;;;;;;;;;5111627;28;20134;-49
2022/05/15 11:17:48;;;;;;;1.35;0.70;;;;;;;;;;5111912;28;20101;-51
2022/05/15 11:20:22;;;;;;;8.80;0.88;;;;;;;;;;5093380;28;20119;-51
2022/05/15 11:22:57;;;;;;;1.05;0.70;;;;;;;;;;5093158;28;20042;-53
2022/05/15 11:25:33;;;;;;;2.58;0.80;;;;;;;;;;5116032;27;20039;-46
2022/05/15 11:28:18;;;;;;;1.38;0.65;;;;;;;;;;5131859;27;20046;-53
2022/05/15 11:31:06;;;;;;;2.15;0.70;;;;;;;;;;5132167;27;20463;-54
2022/05/15 11:33:58;;;;;;;1.20;0.50;;;;;;;;;;5132448;27;20039;-49
2022/05/15 11:36:33;;;;;;;2.75;0.52;;;;;;;;;;5131730;28;20118;-51
2022/05/15 11:39:15;;;;;;;2.65;1.27;;;;;;;;;;5132044;27;20038;-53
2022/05/15 11:41:43;;;;;;;1.05;0.70;;;;;;;;;;5132027;28;20043;-53
2022/05/15 11:44:20;;;;;;;1.92;0.70;;;;;;;;;;5131867;28;20100;-52
2022/05/15 11:46:51;;;;;;;1.92;0.77;;;;;;;;;;5132063;28;20039;-52
2022/05/15 11:49:36;;;;;;;2.50;0.93;;;;;;;;;;5131623;28;20133;-54
2022/05/15 11:52:03;;;;;;;1.73;1.20;;;;;;;;;;5131914;28;20070;-52
2022/05/15 11:54:34;;;;;;;1.42;0.85;;;;;;;;;;5131302;27;20420;-53
2022/05/15 11:57:03;;;;;;;2.42;1.17;;;;;;;;;;5114975;27;20047;-51
2022/05/15 11:59:35;;;;;;;1.40;0.90;;;;;;;;;;5131266;27;20139;-51
2022/05/15 12:02:24;;;;;;;2.00;1.00;;;;;;;;;;5130043;28;20047;-50
2022/05/15 12:04:51;;;;;;;1.63;1.10;;;;;;;;;;5131824;28;20035;-51
2022/05/15 12:07:51;;;;;;;2.60;0.70;;;;;;;;;;5131777;28;20047;-52
2022/05/15 12:10:33;;;;;;;0.88;0.70;;;;;;;;;;5131713;28;20490;-52
2022/05/15 12:13:37;;;;;;;1.85;0.65;;;;;;;;;;5131678;28;20663;-52
2022/05/15 12:16:32;;;;;;;1.10;0.60;;;;;;;;;;5127159;28;20047;-51
2022/05/15 12:19:14;;;;;;;2.00;0.90;;;;;;;;;;5131559;27;20058;-50
2022/05/15 12:21:48;;;;;;;1.30;0.73;;;;;;;;;;5131684;27;20035;-52
2022/05/15 12:24:27;;;;;;;;;;;;;;;;;;5131992;28;20482;-51
2022/05/15 12:27:00;;;;;;;0.73;0.60;;;;;;;;;;5131543;28;19919;-52
2022/05/15 12:29:48;;;;;;;1.80;0.77;;;;;;;;;;5132141;27;20065;-54
2022/05/15 12:32:41;;;;;;;1.27;0.68;;;;;;;;;;5135460;27;20119;-55
2022/05/15 12:35:24;;;;;;;0.60;0.55;;;;;;;;;;5121292;27;20085;-54
2022/05/15 12:38:07;;;;;;;6.25;2.65;;;;;;;;;;5135443;27;20065;-53
2022/05/15 12:40:54;;;;;;;2.70;0.88;;;;;;;;;;5135358;27;20123;-53
2022/05/15 12:43:28;;;;;;;1.88;0.73;;;;;;;;;;5116859;27;20129;-56
2022/05/15 12:45:56;;;;;;;2.15;0.70;;;;;;;;;;5134917;27;20047;-55
2022/05/15 12:48:24;;;;;;;1.83;0.90;;;;;;;;;;5135052;27;20043;-51
2022/05/15 12:50:56;;;;;;;1.15;0.50;;;;;;;;;;5135155;27;20070;-49
2022/05/15 12:53:27;;;;;;;2.13;0.70;;;;;;;;;;5135046;27;20435;-53
2022/05/15 12:56:10;;;;;;;0.90;0.70;;;;;;;;;;5134838;27;20122;-52
2022/05/15 12:58:53;;;;;;;2.17;0.80;;;;;;;;;;5135130;27;20043;-53
2022/05/15 13:01:25;;;;;;;1.98;0.82;;;;;;;;;;5134760;27;20074;-53
2022/05/15 13:03:56;;;;;;;1.85;0.75;;;;;;;;;;5135184;27;20118;-53
2022/05/15 13:06:36;;;;;;;0.90;0.60;;;;;;;;;;5134498;27;20068;-51
2022/05/15 13:09:08;;;;;;;1.48;0.50;;;;;;;;;;5134793;27;20047;-49
2022/05/15 13:11:50;;;;;;;1.52;0.60;;;;;;;;;;5134995;27;20109;-54
2022/05/15 13:14:22;;;;;;;0.73;0.50;;;;;;;;;;5134445;27;20126;-49
2022/05/15 13:16:52;;;;;;;1.08;0.57;;;;;;;;;;5134445;27;20088;-52
2022/05/15 13:19:51;;;;;;;1.25;0.60;;;;;;;;;;5134706;27;20111;-51
2022/05/15 13:22:23;;;;;;;1.27;0.70;;;;;;;;;;5127706;27;20078;-54
2022/05/15 13:25:04;;;;;;;1.50;0.40;;;;;;;;;;5134421;27;20100;-51
2022/05/15 13:27:48;;;;;;;1.15;0.47;;;;;;;;;;5134403;27;20043;-53
2022/05/15 13:30:21;;;;;;;1.45;0.40;;;;;;;;;;5134242;27;20097;-51
2022/05/15 13:32:56;;;;;;;2.45;1.30;;;;;;;;;;5134250;27;20549;-57
2022/05/15 13:35:27;;;;;;;2.20;0.63;;;;;;;;;;5134231;27;20043;-56
2022/05/15 13:37:57;;;;;;;1.50;0.70;;;;;;;;;;5134082;27;20043;-53
2022/05/15 13:43:29;;;;;;;0.73;0.40;;;;;;;;;;5134166;27;20074;-55
2022/05/15 13:46:04;;;;;;;1.08;0.70;;;;;;;;;;5133779;27;20080;-53
2022/05/15 13:48:52;;;;;;;0.90;0.30;;;;;;;;;;5133878;27;20039;-50
2022/05/15 13:51:35;;;;;;;5.25;2.88;;;;;;;;;;5134029;27;20039;-57
2022/05/15 13:54:17;;;;;;;1.23;0.40;;;;;;;;;;5133546;27;20039;-57
2022/05/15 13:57:08;;;;;;;1.20;0.60;;;;;;;;;;5133551;27;20043;-56
2022/05/15 13:59:44;;;;;;;0.40;0.40;;;;;;;;;;5133932;27;20080;-57
2022/05/15 14:02:18;;;;;;;0.88;0.50;;;;;;;;;;5133839;27;20103;-54
2022/05/15 14:05:12;;;;;;;1.13;0.35;;;;;;;;;;5115339;27;20114;-54
2022/05/15 14:07:40;;;;;;;;;;;;;;;;;;5123735;27;20379;-50
2022/05/15 14:10:14;;;;;;;1.27;0.63;;;;;;;;;;5133778;27;19920;-58
2022/05/15 14:12:41;;;;;;;0.65;0.40;;;;;;;;;;5133451;27;20035;-53
2022/05/15 14:15:28;;;;;;;0.40;0.40;;;;;;;;;;5133270;27;20047;-53
2022/05/15 14:17:58;;;;;;;1.27;0.80;;;;;;;;;;5117983;27;20096;-54
2022/05/15 14:20:29;;;;;;;1.35;0.60;;;;;;;;;;5133422;27;20066;-57
2022/05/15 14:22:57;;;;;;;0.68;0.50;;;;;;;;;;5133195;27;20450;-52
2022/05/15 14:25:24;;;;;;;0.65;0.35;;;;;;;;;;5133202;27;20052;-57
2022/05/15 14:27:56;;;;;;;0.43;0.40;;;;;;;;;;5133029;27;20063;-55
2022/05/15 14:30:25;;;;;;;0.40;0.40;;;;;;;;;;5133022;27;20038;-57
2022/05/15 14:32:56;;;;;;;2.17;0.40;;;;;;;;;;5133236;27;20035;-54
2022/05/15 14:35:28;;;;;;;21.23;10.35;;;;;;;;;;5133062;27;20141;-54
2022/05/15 14:37:56;;;;;;;4.93;2.83;;;;;;;;;;5132656;27;20050;-57
2022/05/15 14:40:24;;;;;;;0.75;0.40;;;;;;;;;;5132824;27;20812;-56
2022/05/15 14:42:51;;;;;;;0.60;0.30;;;;;;;;;;5132674;27;20078;-56
2022/05/15 14:45:19;;;;;;;0.63;0.50;;;;;;;;;;5133108;27;20031;-57
2022/05/15 14:47:51;;;;;;;0.30;0.30;;;;;;;;;;5132828;27;20104;-54
2022/05/15 14:50:19;;;;;;;0.93;0.40;;;;;;;;;;5132637;27;20103;-57
2022/05/15 14:52:50;;;;;;;0.88;0.40;;;;;;;;;;5114179;28;20035;-57
2022/05/15 14:58:11;;;;;;;0.75;0.43;;;;;;;;;;5114479;27;20046;-57
2022/05/15 15:00:38;;;;;;;0.60;0.40;;;;;;;;;;5132817;27;20515;-58
2022/05/15 15:03:06;;;;;;;2.35;0.50;;;;;;;;;;5132657;27;20039;-54
2022/05/15 15:05:45;;;;;;;0.77;0.40;;;;;;;;;;5132507;27;20078;-56
2022/05/15 15:08:15;;;;;;;1.05;0.60;;;;;;;;;;5132288;27;20063;-54
2022/05/15 15:10:43;;;;;;;0.60;0.47;;;;;;;;;;5132415;27;20554;-55
2022/05/15 15:13:11;;;;;;;1.33;0.75;;;;;;;;;;5132081;27;20046;-57
2022/05/15 15:15:42;;;;;;;1.10;0.47;;;;;;;;;;5132424;27;20126;-55
2022/05/15 15:18:10;;;;;;;1.05;0.50;;;;;;;;;;5132348;27;20035;-57
2022/05/15 15:20:40;;;;;;;1.17;0.45;;;;;;;;;;5132650;27;20053;-55
2022/05/15 15:23:07;;;;;;;1.70;0.57;;;;;;;;;;5132314;27;20114;-55
2022/05/15 15:25:35;;;;;;;2.00;0.80;;;;;;;;;;5132463;27;20426;-55
2022/05/15 15:28:02;;;;;;;0.80;0.40;;;;;;;;;;5132016;27;20039;-55
2022/05/15 15:30:29;;;;;;;2.22;1.23;;;;;;;;;;5132228;27;20047;-57
2022/05/15 15:32:59;;;;;;;1.27;0.52;;;;;;;;;;5132292;27;20043;-55
2022/05/15 15:35:32;;;;;;;2.38;1.20;;;;;;;;;;5132063;27;20126;-56
2022/05/15 15:38:15;;;;;;;2.15;0.82;;;;;;;;;;5132004;28;20047;-56
2022/05/15 15:40:44;;;;;;;2.03;0.60;;;;;;;;;;5131896;28;20092;-56